sensor_id;sensor_type;location;lat;lon;timestamp;pressure;altitude;pressure_sealevel;temperature;humidity
75136;BME280;63707;52.212;9.540;2024-03-17T00:01:10;101301.44;;;2.77;100.00
75136;BME280;63707;52.212;9.540;2024-03-17T00:03:39;101223.06;;;2.70;100.00
75136;BME280;63707;52.212;9.540;2024-03-17T00:06:06;101187.22;;;2.70;100.00
75136;BME280;63707;52.212;9.540;2024-03-17T00:08:33;101154.59;;;2.63;100.00
75136;BME280;63707;52.212;9.540;2024-03-17T00:10:59;101129.25;;;2.66;100.00
75136;BME280;63707;52.212;9.540;2024-03-17T00:13:24;101097.63;;;2.58;100.00
75136;BME280;63707;52.212;9.540;2024-03-17T00:15:50;101082.72;;;2.54;100.00
75136;BME280;63707;52.212;9.540;2024-03-17T00:18:16;101100.13;;;2.50;100.00
75136;BME280;63707;52.212;9.540;2024-03-17T00:20:42;101132.66;;;2.36;100.00
75136;BME280;63707;52.212;9.540;2024-03-17T00:23:09;101164.00;;;2.26;100.00
75136;BME280;63707;52.212;9.540;2024-03-17T00:25:37;101211.91;;;2.20;100.00
75136;BME280;63707;52.212;9.540;2024-03-17T00:28:04;101246.75;;;2.22;100.00
75136;BME280;63707;52.212;9.540;2024-03-17T00:30:30;101268.97;;;2.35;100.00
75136;BME280;63707;52.212;9.540;2024-03-17T00:32:56;101253.69;;;2.36;100.00
75136;BME280;63707;52.212;9.540;2024-03-17T00:35:23;101224.50;;;2.42;100.00
75136;BME280;63707;52.212;9.540;2024-03-17T00:37:49;101201.63;;;2.26;100.00
75136;BME280;63707;52.212;9.540;2024-03-17T00:40:17;101212.13;;;2.29;100.00
75136;BME280;63707;52.212;9.540;2024-03-17T00:42:43;101227.28;;;2.30;100.00
75136;BME280;63707;52.212;9.540;2024-03-17T00:45:10;101215.06;;;2.26;100.00
75136;BME280;63707;52.212;9.540;2024-03-17T00:47:36;101223.41;;;2.22;100.00
75136;BME280;63707;52.212;9.540;2024-03-17T00:50:02;101222.66;;;2.20;100.00
75136;BME280;63707;52.212;9.540;2024-03-17T00:52:29;101227.19;;;2.20;100.00
75136;BME280;63707;52.212;9.540;2024-03-17T00:54:54;101229.53;;;2.13;100.00
75136;BME280;63707;52.212;9.540;2024-03-17T00:57:21;101227.56;;;2.04;100.00
75136;BME280;63707;52.212;9.540;2024-03-17T00:59:47;101241.75;;;2.06;100.00
75136;BME280;63707;52.212;9.540;2024-03-17T01:02:14;101271.31;;;2.06;100.00
75136;BME280;63707;52.212;9.540;2024-03-17T01:04:42;101301.63;;;1.97;100.00
75136;BME280;63707;52.212;9.540;2024-03-17T01:07:08;101344.25;;;1.91;100.00
75136;BME280;63707;52.212;9.540;2024-03-17T01:09:34;101398.53;;;1.72;100.00
75136;BME280;63707;52.212;9.540;2024-03-17T01:12:00;101450.28;;;1.63;100.00
75136;BME280;63707;52.212;9.540;2024-03-17T01:14:27;101508.84;;;1.57;100.00
75136;BME280;63707;52.212;9.540;2024-03-17T01:16:53;101574.53;;;1.53;100.00
75136;BME280;63707;52.212;9.540;2024-03-17T01:19:18;101628.25;;;1.53;100.00
75136;BME280;63707;52.212;9.540;2024-03-17T01:21:44;101682.06;;;1.52;100.00
75136;BME280;63707;52.212;9.540;2024-03-17T01:24:09;101721.94;;;1.45;100.00
75136;BME280;63707;52.212;9.540;2024-03-17T01:26:35;101762.22;;;1.58;100.00
75136;BME280;63707;52.212;9.540;2024-03-17T01:29:00;101784.78;;;1.55;100.00
75136;BME280;63707;52.212;9.540;2024-03-17T01:31:28;101802.19;;;1.63;100.00
75136;BME280;63707;52.212;9.540;2024-03-17T01:33:54;101809.63;;;1.59;100.00
75136;BME280;63707;52.212;9.540;2024-03-17T01:36:20;101829.59;;;1.55;100.00
75136;BME280;63707;52.212;9.540;2024-03-17T01:38:45;101845.28;;;1.48;100.00
75136;BME280;63707;52.212;9.540;2024-03-17T01:41:11;101881.91;;;1.49;100.00
75136;BME280;63707;52.212;9.540;2024-03-17T01:43:36;101902.22;;;1.53;100.00
75136;BME280;63707;52.212;9.540;2024-03-17T01:46:02;101923.41;;;1.58;100.00
75136;BME280;63707;52.212;9.540;2024-03-17T01:48:29;101927.28;;;1.54;100.00
75136;BME280;63707;52.212;9.540;2024-03-17T01:50:55;101916.28;;;1.44;100.00
75136;BME280;63707;52.212;9.540;2024-03-17T01:53:22;101936.06;;;1.43;100.00
75136;BME280;63707;52.212;9.540;2024-03-17T01:55:51;101965.28;;;1.48;100.00
75136;BME280;63707;52.212;9.540;2024-03-17T01:58:20;101979.19;;;1.40;100.00
75136;BME280;63707;52.212;9.540;2024-03-17T02:00:46;101976.44;;;1.27;100.00
75136;BME280;63707;52.212;9.540;2024-03-17T02:03:12;101987.56;;;1.36;100.00
75136;BME280;63707;52.212;9.540;2024-03-17T02:05:39;101999.91;;;1.38;100.00
75136;BME280;63707;52.212;9.540;2024-03-17T02:08:04;102013.53;;;1.49;100.00
75136;BME280;63707;52.212;9.540;2024-03-17T02:10:30;102020.72;;;1.49;100.00
75136;BME280;63707;52.212;9.540;2024-03-17T02:12:56;102021.59;;;1.49;100.00
75136;BME280;63707;52.212;9.540;2024-03-17T02:15:21;102010.09;;;1.47;100.00
75136;BME280;63707;52.212;9.540;2024-03-17T02:17:47;102013.06;;;1.43;100.00
75136;BME280;63707;52.212;9.540;2024-03-17T02:20:12;102015.75;;;1.43;100.00
75136;BME280;63707;52.212;9.540;2024-03-17T02:22:40;102019.09;;;1.46;100.00
75136;BME280;63707;52.212;9.540;2024-03-17T02:25:06;102024.69;;;1.29;100.00
75136;BME280;63707;52.212;9.540;2024-03-17T02:27:34;101999.09;;;1.23;100.00
75136;BME280;63707;52.212;9.540;2024-03-17T02:30:00;102002.19;;;1.17;100.00
75136;BME280;63707;52.212;9.540;2024-03-17T02:32:26;101977.84;;;1.06;100.00
75136;BME280;63707;52.212;9.540;2024-03-17T02:34:53;101969.50;;;1.11;100.00
75136;BME280;63707;52.212;9.540;2024-03-17T02:37:18;101976.28;;;1.16;100.00
75136;BME280;63707;52.212;9.540;2024-03-17T02:39:45;101982.25;;;1.07;100.00
75136;BME280;63707;52.212;9.540;2024-03-17T02:42:11;101993.34;;;1.15;100.00
75136;BME280;63707;52.212;9.540;2024-03-17T02:44:37;101988.78;;;1.03;100.00
75136;BME280;63707;52.212;9.540;2024-03-17T02:47:05;101984.25;;;0.89;100.00
75136;BME280;63707;52.212;9.540;2024-03-17T02:49:31;101981.47;;;0.91;100.00
75136;BME280;63707;52.212;9.540;2024-03-17T02:52:09;101991.34;;;0.90;100.00
75136;BME280;63707;52.212;9.540;2024-03-17T02:54:35;102004.28;;;0.84;100.00
75136;BME280;63707;52.212;9.540;2024-03-17T02:57:02;102027.19;;;0.89;100.00
75136;BME280;63707;52.212;9.540;2024-03-17T02:59:28;102055.19;;;0.85;100.00
75136;BME280;63707;52.212;9.540;2024-03-17T03:01:54;102074.75;;;0.87;100.00
75136;BME280;63707;52.212;9.540;2024-03-17T03:04:20;102103.28;;;0.88;100.00
75136;BME280;63707;52.212;9.540;2024-03-17T03:06:45;102121.81;;;0.93;100.00
75136;BME280;63707;52.212;9.540;2024-03-17T03:09:11;102134.34;;;0.92;100.00
75136;BME280;63707;52.212;9.540;2024-03-17T03:11:41;102133.34;;;0.95;100.00
75136;BME280;63707;52.212;9.540;2024-03-17T03:14:08;102145.81;;;0.96;100.00
75136;BME280;63707;52.212;9.540;2024-03-17T03:16:33;102151.84;;;1.00;100.00
75136;BME280;63707;52.212;9.540;2024-03-17T03:18:59;102149.16;;;1.00;100.00
75136;BME280;63707;52.212;9.540;2024-03-17T03:21:25;102147.44;;;0.99;100.00
75136;BME280;63707;52.212;9.540;2024-03-17T03:23:51;102150.03;;;1.00;100.00
75136;BME280;63707;52.212;9.540;2024-03-17T03:26:17;102139.97;;;1.04;100.00
75136;BME280;63707;52.212;9.540;2024-03-17T03:28:43;102144.19;;;1.22;100.00
75136;BME280;63707;52.212;9.540;2024-03-17T03:31:11;102143.50;;;1.18;100.00
75136;BME280;63707;52.212;9.540;2024-03-17T03:33:39;102135.34;;;1.06;100.00
75136;BME280;63707;52.212;9.540;2024-03-17T03:36:09;102129.31;;;1.02;100.00
75136;BME280;63707;52.212;9.540;2024-03-17T03:38:35;102123.19;;;1.14;100.00
75136;BME280;63707;52.212;9.540;2024-03-17T03:41:06;102125.88;;;1.14;100.00
75136;BME280;63707;52.212;9.540;2024-03-17T03:43:32;102124.63;;;1.20;100.00
75136;BME280;63707;52.212;9.540;2024-03-17T03:45:59;102105.44;;;0.98;100.00
75136;BME280;63707;52.212;9.540;2024-03-17T03:48:26;102112.59;;;0.83;100.00
75136;BME280;63707;52.212;9.540;2024-03-17T03:50:51;102108.81;;;1.01;100.00
75136;BME280;63707;52.212;9.540;2024-03-17T03:53:16;102114.28;;;1.14;100.00
75136;BME280;63707;52.212;9.540;2024-03-17T03:55:42;102119.72;;;0.98;100.00
75136;BME280;63707;52.212;9.540;2024-03-17T03:58:07;102107.84;;;1.02;100.00
75136;BME280;63707;52.212;9.540;2024-03-17T04:00:33;102118.66;;;1.29;100.00
75136;BME280;63707;52.212;9.540;2024-03-17T04:02:59;102108.50;;;1.34;100.00
75136;BME280;63707;52.212;9.540;2024-03-17T04:05:28;102101.78;;;1.55;100.00
75136;BME280;63707;52.212;9.540;2024-03-17T04:07:54;102097.53;;;1.66;100.00
75136;BME280;63707;52.212;9.540;2024-03-17T04:10:19;102080.66;;;1.64;100.00
75136;BME280;63707;52.212;9.540;2024-03-17T04:12:46;102063.16;;;1.44;100.00
75136;BME280;63707;52.212;9.540;2024-03-17T04:15:11;102041.56;;;1.31;100.00
75136;BME280;63707;52.212;9.540;2024-03-17T04:17:37;102027.75;;;1.23;100.00
75136;BME280;63707;52.212;9.540;2024-03-17T04:20:03;102031.72;;;1.17;100.00
75136;BME280;63707;52.212;9.540;2024-03-17T04:22:31;102040.34;;;1.08;100.00
75136;BME280;63707;52.212;9.540;2024-03-17T04:24:57;102043.31;;;1.04;100.00
75136;BME280;63707;52.212;9.540;2024-03-17T04:27:22;102038.78;;;0.90;100.00
75136;BME280;63707;52.212;9.540;2024-03-17T04:29:49;102036.13;;;0.76;100.00
75136;BME280;63707;52.212;9.540;2024-03-17T04:32:14;102037.25;;;0.72;100.00
75136;BME280;63707;52.212;9.540;2024-03-17T04:34:40;102040.50;;;0.62;100.00
75136;BME280;63707;52.212;9.540;2024-03-17T04:37:05;102041.00;;;0.69;100.00
75136;BME280;63707;52.212;9.540;2024-03-17T04:39:32;102043.41;;;0.74;100.00
75136;BME280;63707;52.212;9.540;2024-03-17T04:41:58;102042.34;;;0.62;100.00
75136;BME280;63707;52.212;9.540;2024-03-17T04:44:23;102042.81;;;0.69;100.00
75136;BME280;63707;52.212;9.540;2024-03-17T04:46:48;102061.22;;;0.75;100.00
75136;BME280;63707;52.212;9.540;2024-03-17T04:49:14;102074.34;;;0.79;100.00
75136;BME280;63707;52.212;9.540;2024-03-17T04:51:39;102085.75;;;0.83;100.00
75136;BME280;63707;52.212;9.540;2024-03-17T04:54:05;102091.88;;;0.71;100.00
75136;BME280;63707;52.212;9.540;2024-03-17T04:56:35;102088.97;;;0.59;100.00
75136;BME280;63707;52.212;9.540;2024-03-17T04:59:00;102097.44;;;0.68;100.00
75136;BME280;63707;52.212;9.540;2024-03-17T05:01:26;102105.00;;;0.75;100.00
75136;BME280;63707;52.212;9.540;2024-03-17T05:03:51;102109.13;;;0.81;100.00
75136;BME280;63707;52.212;9.540;2024-03-17T05:06:17;102131.66;;;0.92;100.00
75136;BME280;63707;52.212;9.540;2024-03-17T05:08:43;102137.56;;;0.99;100.00
75136;BME280;63707;52.212;9.540;2024-03-17T05:11:09;102153.38;;;1.04;100.00
75136;BME280;63707;52.212;9.540;2024-03-17T05:13:36;102161.63;;;1.01;100.00
75136;BME280;63707;52.212;9.540;2024-03-17T05:16:05;102158.75;;;1.04;100.00
75136;BME280;63707;52.212;9.540;2024-03-17T05:18:30;102163.56;;;1.13;100.00
75136;BME280;63707;52.212;9.540;2024-03-17T05:20:58;102152.53;;;1.17;100.00
75136;BME280;63707;52.212;9.540;2024-03-17T05:23:25;102154.94;;;1.22;100.00
75136;BME280;63707;52.212;9.540;2024-03-17T05:25:51;102143.41;;;1.20;100.00
75136;BME280;63707;52.212;9.540;2024-03-17T05:28:17;102137.47;;;1.29;100.00
75136;BME280;63707;52.212;9.540;2024-03-17T05:30:44;102141.13;;;1.42;100.00
75136;BME280;63707;52.212;9.540;2024-03-17T05:33:09;102144.59;;;1.44;100.00
75136;BME280;63707;52.212;9.540;2024-03-17T05:35:35;102124.22;;;1.40;100.00
75136;BME280;63707;52.212;9.540;2024-03-17T05:38:00;102123.69;;;1.49;100.00
75136;BME280;63707;52.212;9.540;2024-03-17T05:40:26;102113.28;;;1.57;100.00
75136;BME280;63707;52.212;9.540;2024-03-17T05:42:51;102102.44;;;1.59;100.00
75136;BME280;63707;52.212;9.540;2024-03-17T05:45:17;102083.44;;;1.62;100.00
75136;BME280;63707;52.212;9.540;2024-03-17T05:47:44;102049.06;;;1.67;100.00
75136;BME280;63707;52.212;9.540;2024-03-17T05:50:09;102043.09;;;1.76;100.00
75136;BME280;63707;52.212;9.540;2024-03-17T05:52:35;102031.63;;;1.87;100.00
75136;BME280;63707;52.212;9.540;2024-03-17T05:55:00;102010.75;;;2.05;100.00
75136;BME280;63707;52.212;9.540;2024-03-17T05:57:26;101994.06;;;2.00;100.00
75136;BME280;63707;52.212;9.540;2024-03-17T05:59:51;101972.88;;;2.08;100.00
75136;BME280;63707;52.212;9.540;2024-03-17T06:02:17;101957.84;;;2.18;100.00
75136;BME280;63707;52.212;9.540;2024-03-17T06:04:45;101937.09;;;2.20;100.00
75136;BME280;63707;52.212;9.540;2024-03-17T06:07:11;101918.16;;;2.21;100.00
75136;BME280;63707;52.212;9.540;2024-03-17T06:09:36;101885.22;;;2.31;100.00
75136;BME280;63707;52.212;9.540;2024-03-17T06:12:02;101867.38;;;2.42;100.00
75136;BME280;63707;52.212;9.540;2024-03-17T06:14:27;101853.72;;;2.45;100.00
75136;BME280;63707;52.212;9.540;2024-03-17T06:16:53;101856.03;;;2.63;100.00
75136;BME280;63707;52.212;9.540;2024-03-17T06:19:18;101839.84;;;2.39;100.00
75136;BME280;63707;52.212;9.540;2024-03-17T06:21:46;101785.38;;;2.48;100.00
75136;BME280;63707;52.212;9.540;2024-03-17T06:24:12;101730.81;;;2.46;100.00
75136;BME280;63707;52.212;9.540;2024-03-17T06:26:37;101648.66;;;2.53;100.00
75136;BME280;63707;52.212;9.540;2024-03-17T06:29:03;101600.53;;;2.72;100.00
75136;BME280;63707;52.212;9.540;2024-03-17T06:31:28;101522.13;;;2.77;100.00
75136;BME280;63707;52.212;9.540;2024-03-17T06:33:54;101486.31;;;2.88;100.00
75136;BME280;63707;52.212;9.540;2024-03-17T06:36:19;101463.31;;;3.06;100.00
75136;BME280;63707;52.212;9.540;2024-03-17T06:38:46;101426.91;;;3.23;100.00
75136;BME280;63707;52.212;9.540;2024-03-17T06:41:11;101388.34;;;3.33;100.00
75136;BME280;63707;52.212;9.540;2024-03-17T06:43:40;101308.47;;;3.43;100.00
75136;BME280;63707;52.212;9.540;2024-03-17T06:46:07;101190.59;;;3.36;100.00
75136;BME280;63707;52.212;9.540;2024-03-17T06:48:33;101157.22;;;3.78;100.00
75136;BME280;63707;52.212;9.540;2024-03-17T06:50:59;101048.03;;;3.23;100.00
75136;BME280;63707;52.212;9.540;2024-03-17T06:53:24;101036.06;;;3.37;100.00
75136;BME280;63707;52.212;9.540;2024-03-17T06:55:56;101012.38;;;4.00;100.00
75136;BME280;63707;52.212;9.540;2024-03-17T06:58:22;100898.38;;;4.17;100.00
75136;BME280;63707;52.212;9.540;2024-03-17T07:00:54;100825.16;;;4.12;100.00
75136;BME280;63707;52.212;9.540;2024-03-17T07:03:20;100678.53;;;4.40;100.00
75136;BME280;63707;52.212;9.540;2024-03-17T07:05:51;100592.88;;;3.79;100.00
75136;BME280;63707;52.212;9.540;2024-03-17T07:08:17;100571.09;;;3.91;100.00
75136;BME280;63707;52.212;9.540;2024-03-17T07:11:01;100565.13;;;4.68;100.00
75136;BME280;63707;52.212;9.540;2024-03-17T07:13:29;100472.22;;;4.53;100.00
75136;BME280;63707;52.212;9.540;2024-03-17T07:15:54;100459.91;;;4.50;100.00
75136;BME280;63707;52.212;9.540;2024-03-17T07:18:20;100456.09;;;4.61;100.00
75136;BME280;63707;52.212;9.540;2024-03-17T07:20:45;100454.41;;;4.86;100.00
75136;BME280;63707;52.212;9.540;2024-03-17T07:23:13;100440.91;;;5.20;100.00
75136;BME280;63707;52.212;9.540;2024-03-17T07:25:38;100417.03;;;5.41;100.00
75136;BME280;63707;52.212;9.540;2024-03-17T07:28:05;100407.94;;;5.08;100.00
75136;BME280;63707;52.212;9.540;2024-03-17T07:30:31;100389.34;;;5.05;100.00
75136;BME280;63707;52.212;9.540;2024-03-17T07:32:56;100383.44;;;4.67;100.00
75136;BME280;63707;52.212;9.540;2024-03-17T07:35:22;100396.25;;;5.50;100.00
75136;BME280;63707;52.212;9.540;2024-03-17T07:37:48;100354.25;;;5.80;100.00
75136;BME280;63707;52.212;9.540;2024-03-17T07:40:13;100325.72;;;5.93;100.00
75136;BME280;63707;52.212;9.540;2024-03-17T07:42:40;100314.97;;;6.96;100.00
75136;BME280;63707;52.212;9.540;2024-03-17T07:45:08;100319.44;;;10.64;100.00
75136;BME280;63707;52.212;9.540;2024-03-17T07:47:34;100289.66;;;11.78;100.00
75136;BME280;63707;52.212;9.540;2024-03-17T07:50:02;100372.81;;;10.09;100.00
75136;BME280;63707;52.212;9.540;2024-03-17T07:52:30;100276.03;;;8.26;100.00
75136;BME280;63707;52.212;9.540;2024-03-17T07:54:56;100222.34;;;7.46;100.00
75136;BME280;63707;52.212;9.540;2024-03-17T07:57:22;100211.13;;;7.49;100.00
75136;BME280;63707;52.212;9.540;2024-03-17T07:59:49;100178.47;;;7.95;100.00
75136;BME280;63707;52.212;9.540;2024-03-17T08:02:16;100215.28;;;8.57;100.00
75136;BME280;63707;52.212;9.540;2024-03-17T08:04:41;100297.34;;;8.14;100.00
75136;BME280;63707;52.212;9.540;2024-03-17T08:07:07;100238.41;;;8.38;100.00
75136;BME280;63707;52.212;9.540;2024-03-17T08:09:33;100260.38;;;8.28;100.00
75136;BME280;63707;52.212;9.540;2024-03-17T08:11:58;100298.81;;;9.99;100.00
75136;BME280;63707;52.212;9.540;2024-03-17T08:14:24;100402.69;;;11.90;100.00
75136;BME280;63707;52.212;9.540;2024-03-17T08:16:49;100453.50;;;11.84;100.00
75136;BME280;63707;52.212;9.540;2024-03-17T08:19:16;100508.84;;;11.72;100.00
75136;BME280;63707;52.212;9.540;2024-03-17T08:21:41;100492.34;;;13.07;100.00
75136;BME280;63707;52.212;9.540;2024-03-17T08:24:07;100600.50;;;13.16;100.00
75136;BME280;63707;52.212;9.540;2024-03-17T08:26:33;100798.97;;;12.64;100.00
75136;BME280;63707;52.212;9.540;2024-03-17T08:28:59;100931.47;;;15.57;100.00
75136;BME280;63707;52.212;9.540;2024-03-17T08:31:24;100843.44;;;14.80;100.00
75136;BME280;63707;52.212;9.540;2024-03-17T08:33:50;100848.19;;;15.11;100.00
75136;BME280;63707;52.212;9.540;2024-03-17T08:36:18;100854.00;;;14.77;100.00
75136;BME280;63707;52.212;9.540;2024-03-17T08:38:45;100840.66;;;16.64;100.00
75136;BME280;63707;52.212;9.540;2024-03-17T08:41:10;100837.25;;;16.19;100.00
75136;BME280;63707;52.212;9.540;2024-03-17T08:43:37;100832.50;;;15.77;100.00
75136;BME280;63707;52.212;9.540;2024-03-17T08:46:04;100828.69;;;17.32;100.00
75136;BME280;63707;52.212;9.540;2024-03-17T08:48:32;100843.38;;;15.52;100.00
75136;BME280;63707;52.212;9.540;2024-03-17T08:50:58;100847.28;;;14.66;100.00
75136;BME280;63707;52.212;9.540;2024-03-17T08:53:26;100838.94;;;15.51;100.00
75136;BME280;63707;52.212;9.540;2024-03-17T08:55:52;100832.84;;;17.71;100.00
75136;BME280;63707;52.212;9.540;2024-03-17T08:58:18;100834.34;;;18.50;100.00
75136;BME280;63707;52.212;9.540;2024-03-17T09:00:43;100850.88;;;15.31;100.00
75136;BME280;63707;52.212;9.540;2024-03-17T09:03:10;100848.59;;;17.16;100.00
75136;BME280;63707;52.212;9.540;2024-03-17T09:05:36;100837.78;;;17.33;100.00
75136;BME280;63707;52.212;9.540;2024-03-17T09:08:01;100847.09;;;18.63;100.00
75136;BME280;63707;52.212;9.540;2024-03-17T09:10:29;100858.25;;;16.14;100.00
75136;BME280;63707;52.212;9.540;2024-03-17T09:12:55;100853.97;;;16.43;100.00
75136;BME280;63707;52.212;9.540;2024-03-17T09:15:20;100851.22;;;16.43;100.00
75136;BME280;63707;52.212;9.540;2024-03-17T09:17:46;100840.75;;;18.63;100.00
75136;BME280;63707;52.212;9.540;2024-03-17T09:20:12;100843.50;;;18.63;100.00
75136;BME280;63707;52.212;9.540;2024-03-17T09:22:40;100839.94;;;17.79;100.00
75136;BME280;63707;52.212;9.540;2024-03-17T09:25:06;100849.97;;;16.88;100.00
75136;BME280;63707;52.212;9.540;2024-03-17T09:27:33;100842.63;;;17.97;100.00
75136;BME280;63707;52.212;9.540;2024-03-17T09:29:59;100850.78;;;16.46;100.00
75136;BME280;63707;52.212;9.540;2024-03-17T09:32:25;100845.22;;;18.10;100.00
75136;BME280;63707;52.212;9.540;2024-03-17T09:34:50;100840.13;;;18.72;100.00
75136;BME280;63707;52.212;9.540;2024-03-17T09:37:16;100845.75;;;19.81;100.00
75136;BME280;63707;52.212;9.540;2024-03-17T09:39:41;100845.81;;;19.29;100.00
75136;BME280;63707;52.212;9.540;2024-03-17T09:42:16;100848.16;;;18.50;100.00
75136;BME280;63707;52.212;9.540;2024-03-17T09:44:45;100850.16;;;19.65;100.00
75136;BME280;63707;52.212;9.540;2024-03-17T09:47:18;100838.97;;;21.06;100.00
75136;BME280;63707;52.212;9.540;2024-03-17T09:49:43;100841.19;;;19.46;100.00
75136;BME280;63707;52.212;9.540;2024-03-17T09:52:19;100825.69;;;22.00;100.00
75136;BME280;63707;52.212;9.540;2024-03-17T09:54:45;100864.91;;;15.03;100.00
75136;BME280;63707;52.212;9.540;2024-03-17T09:57:16;100837.09;;;19.89;100.00
75136;BME280;63707;52.212;9.540;2024-03-17T09:59:50;100845.28;;;16.71;100.00
75136;BME280;63707;52.212;9.540;2024-03-17T10:02:17;100823.47;;;20.50;100.00
75136;BME280;63707;52.212;9.540;2024-03-17T10:04:43;100845.66;;;17.47;100.00
75136;BME280;63707;52.212;9.540;2024-03-17T10:07:09;100839.28;;;17.17;100.00
75136;BME280;63707;52.212;9.540;2024-03-17T10:09:35;100828.69;;;19.56;100.00
75136;BME280;63707;52.212;9.540;2024-03-17T10:12:01;100827.91;;;20.51;100.00
75136;BME280;63707;52.212;9.540;2024-03-17T10:14:27;100822.75;;;21.85;100.00
75136;BME280;63707;52.212;9.540;2024-03-17T10:16:53;100853.59;;;14.80;100.00
75136;BME280;63707;52.212;9.540;2024-03-17T10:19:22;100833.41;;;20.17;100.00
75136;BME280;63707;52.212;9.540;2024-03-17T10:21:49;100845.91;;;17.27;100.00
75136;BME280;63707;52.212;9.540;2024-03-17T10:24:20;100841.38;;;17.51;100.00
75136;BME280;63707;52.212;9.540;2024-03-17T10:26:47;100834.00;;;19.45;100.00
75136;BME280;63707;52.212;9.540;2024-03-17T10:29:20;100829.13;;;20.26;100.00
75136;BME280;63707;52.212;9.540;2024-03-17T10:31:55;100837.47;;;18.77;100.00
75136;BME280;63707;52.212;9.540;2024-03-17T10:34:23;100832.78;;;21.64;100.00
75136;BME280;63707;52.212;9.540;2024-03-17T10:36:51;100840.38;;;18.71;100.00
75136;BME280;63707;52.212;9.540;2024-03-17T10:39:23;100858.25;;;14.20;100.00
75136;BME280;63707;52.212;9.540;2024-03-17T10:41:56;100859.16;;;12.15;100.00
75136;BME280;63707;52.212;9.540;2024-03-17T10:44:21;100860.91;;;11.44;100.00
75136;BME280;63707;52.212;9.540;2024-03-17T10:46:48;100838.88;;;16.77;100.00
75136;BME280;63707;52.212;9.540;2024-03-17T10:49:17;100831.34;;;17.57;100.00
75136;BME280;63707;52.212;9.540;2024-03-17T10:51:44;100819.09;;;15.49;100.00
75136;BME280;63707;52.212;9.540;2024-03-17T10:54:22;100832.06;;;13.78;100.00
75136;BME280;63707;52.212;9.540;2024-03-17T10:56:48;100805.53;;;22.10;100.00
75136;BME280;63707;52.212;9.540;2024-03-17T10:59:14;100806.59;;;22.04;100.00
75136;BME280;63707;52.212;9.540;2024-03-17T11:01:40;100823.78;;;16.36;100.00
75136;BME280;63707;52.212;9.540;2024-03-17T11:04:08;100827.22;;;15.75;100.00
75136;BME280;63707;52.212;9.540;2024-03-17T11:06:38;100802.66;;;22.00;100.00
75136;BME280;63707;52.212;9.540;2024-03-17T11:09:06;100815.41;;;19.69;100.00
75136;BME280;63707;52.212;9.540;2024-03-17T11:11:38;100810.63;;;19.81;100.00
75136;BME280;63707;52.212;9.540;2024-03-17T11:14:17;100815.44;;;19.86;100.00
75136;BME280;63707;52.212;9.540;2024-03-17T11:16:47;100802.69;;;21.08;100.00
75136;BME280;63707;52.212;9.540;2024-03-17T11:19:15;100815.56;;;19.63;100.00
75136;BME280;63707;52.212;9.540;2024-03-17T11:21:43;100809.84;;;20.15;100.00
75136;BME280;63707;52.212;9.540;2024-03-17T11:24:19;100800.03;;;18.70;100.00
75136;BME280;63707;52.212;9.540;2024-03-17T11:26:45;100801.56;;;18.89;100.00
75136;BME280;63707;52.212;9.540;2024-03-17T11:29:26;100776.97;;;22.15;100.00
75136;BME280;63707;52.212;9.540;2024-03-17T11:31:52;100778.44;;;22.22;100.00
75136;BME280;63707;52.212;9.540;2024-03-17T11:34:34;100777.78;;;21.29;100.00
75136;BME280;63707;52.212;9.540;2024-03-17T11:37:03;100763.28;;;22.03;100.00
75136;BME280;63707;52.212;9.540;2024-03-17T11:39:55;100761.66;;;23.64;100.00
75136;BME280;63707;52.212;9.540;2024-03-17T11:42:24;100760.31;;;23.87;100.00
75136;BME280;63707;52.212;9.540;2024-03-17T11:45:02;100768.84;;;22.03;100.00
75136;BME280;63707;52.212;9.540;2024-03-17T11:47:39;100768.13;;;22.55;100.00
75136;BME280;63707;52.212;9.540;2024-03-17T11:50:06;100767.72;;;23.51;100.00
75136;BME280;63707;52.212;9.540;2024-03-17T11:52:35;100766.22;;;22.66;100.00
75136;BME280;63707;52.212;9.540;2024-03-17T11:55:01;100766.16;;;23.96;100.00
75136;BME280;63707;52.212;9.540;2024-03-17T11:57:27;100759.09;;;25.49;100.00
75136;BME280;63707;52.212;9.540;2024-03-17T11:59:53;100782.56;;;20.73;100.00
75136;BME280;63707;52.212;9.540;2024-03-17T12:02:20;100768.00;;;21.49;100.00
75136;BME280;63707;52.212;9.540;2024-03-17T12:04:47;100768.22;;;22.28;100.00
75136;BME280;63707;52.212;9.540;2024-03-17T12:07:13;100766.84;;;23.25;100.00
75136;BME280;63707;52.212;9.540;2024-03-17T12:09:42;100769.28;;;20.37;100.00
75136;BME280;63707;52.212;9.540;2024-03-17T12:12:09;100772.22;;;19.11;100.00
75136;BME280;63707;52.212;9.540;2024-03-17T12:14:36;100754.91;;;18.06;100.00
75136;BME280;63707;52.212;9.540;2024-03-17T12:17:03;100756.84;;;16.24;100.00
75136;BME280;63707;52.212;9.540;2024-03-17T12:19:29;100755.97;;;14.06;100.00
75136;BME280;63707;52.212;9.540;2024-03-17T12:21:57;100759.59;;;13.00;100.00
75136;BME280;63707;52.212;9.540;2024-03-17T12:24:23;100762.25;;;12.80;100.00
75136;BME280;63707;52.212;9.540;2024-03-17T12:26:52;100731.09;;;20.39;100.00
75136;BME280;63707;52.212;9.540;2024-03-17T12:29:29;100732.31;;;21.57;100.00
75136;BME280;63707;52.212;9.540;2024-03-17T12:32:13;100741.47;;;17.56;100.00
75136;BME280;63707;52.212;9.540;2024-03-17T12:34:40;100746.59;;;16.13;100.00
75136;BME280;63707;52.212;9.540;2024-03-17T12:37:06;100728.75;;;17.97;100.00
75136;BME280;63707;52.212;9.540;2024-03-17T12:39:33;100751.91;;;14.62;100.00
75136;BME280;63707;52.212;9.540;2024-03-17T12:42:05;100725.13;;;17.73;100.00
75136;BME280;63707;52.212;9.540;2024-03-17T12:44:31;100732.16;;;20.93;100.00